sensor_id;sensor_type;location;lat;lon;timestamp;P1;durP1;ratioP1;P2;durP2;ratioP2
10440;SDS011;5268;49.346;9.522;2022-09-16T03:23:56;6.70;;;4.72;;
10440;SDS011;5268;49.346;9.522;2022-09-16T03:29:10;7.97;;;4.60;;
10440;SDS011;5268;49.346;9.522;2022-09-16T03:34:19;5.22;;;4.60;;
10440;SDS011;5268;49.346;9.522;2022-09-16T03:39:25;8.25;;;4.50;;
10440;SDS011;5268;49.346;9.522;2022-09-16T03:44:30;5.68;;;4.22;;
10440;SDS011;5268;49.346;9.522;2022-09-16T03:49:33;6.63;;;4.65;;
10440;SDS011;5268;49.346;9.522;2022-09-16T03:54:37;5.13;;;4.20;;
10440;SDS011;5268;49.346;9.522;2022-09-16T03:59:40;5.63;;;3.80;;
10440;SDS011;5268;49.346;9.522;2022-09-16T04:04:42;5.30;;;4.22;;
10440;SDS011;5268;49.346;9.522;2022-09-16T04:09:45;5.32;;;4.35;;
10440;SDS011;5268;49.346;9.522;2022-09-16T04:14:47;8.32;;;4.30;;
10440;SDS011;5268;49.346;9.522;2022-09-16T04:19:49;6.95;;;3.95;;
10440;SDS011;5268;49.346;9.522;2022-09-16T04:24:53;5.63;;;3.75;;
10440;SDS011;5268;49.346;9.522;2022-09-16T04:29:55;4.97;;;4.00;;
10440;SDS011;5268;49.346;9.522;2022-09-16T04:34:57;5.20;;;3.65;;
10440;SDS011;5268;49.346;9.522;2022-09-16T04:40:02;8.68;;;3.85;;
10440;SDS011;5268;49.346;9.522;2022-09-16T04:45:05;4.82;;;3.33;;
10440;SDS011;5268;49.346;9.522;2022-09-16T04:50:08;7.15;;;3.85;;
10440;SDS011;5268;49.346;9.522;2022-09-16T04:55:12;4.22;;;3.35;;
10440;SDS011;5268;49.346;9.522;2022-09-16T05:00:14;6.63;;;3.92;;
10440;SDS011;5268;49.346;9.522;2022-09-16T05:05:16;5.55;;;3.78;;
10440;SDS011;5268;49.346;9.522;2022-09-16T05:10:20;4.97;;;4.00;;
10440;SDS011;5268;49.346;9.522;2022-09-16T05:15:22;7.10;;;4.03;;
10440;SDS011;5268;49.346;9.522;2022-09-16T05:20:28;6.10;;;3.80;;
10440;SDS011;5268;49.346;9.522;2022-09-16T05:25:44;5.82;;;3.97;;
10440;SDS011;5268;49.346;9.522;2022-09-16T05:37:13;5.60;;;4.20;;
10440;SDS011;5268;49.346;9.522;2022-09-16T05:49:09;6.05;;;4.20;;
10440;SDS011;5268;49.346;9.522;2022-09-16T06:00:20;6.60;;;3.70;;
10440;SDS011;5268;49.346;9.522;2022-09-16T06:29:54;8.85;;;3.75;;
10440;SDS011;5268;49.346;9.522;2022-09-16T06:59:27;6.07;;;3.22;;
10440;SDS011;5268;49.346;9.522;2022-09-16T07:05:21;5.60;;;2.90;;
10440;SDS011;5268;49.346;9.522;2022-09-16T07:46:34;5.65;;;2.80;;
10440;SDS011;5268;49.346;9.522;2022-09-16T08:09:22;4.78;;;2.47;;
10440;SDS011;5268;49.346;9.522;2022-09-16T08:15:15;5.90;;;2.38;;
10440;SDS011;5268;49.346;9.522;2022-09-16T08:20:29;5.35;;;3.13;;
10440;SDS011;5268;49.346;9.522;2022-09-16T08:25:32;7.80;;;3.47;;
10440;SDS011;5268;49.346;9.522;2022-09-16T08:30:35;5.95;;;2.80;;
10440;SDS011;5268;49.346;9.522;2022-09-16T08:35:37;5.88;;;2.20;;
10440;SDS011;5268;49.346;9.522;2022-09-16T08:40:42;3.33;;;2.08;;
10440;SDS011;5268;49.346;9.522;2022-09-16T08:45:47;5.22;;;2.47;;
10440;SDS011;5268;49.346;9.522;2022-09-16T08:50:55;3.53;;;2.10;;
10440;SDS011;5268;49.346;9.522;2022-09-16T08:56:09;7.07;;;2.42;;
10440;SDS011;5268;49.346;9.522;2022-09-16T09:01:17;4.05;;;2.55;;
10440;SDS011;5268;49.346;9.522;2022-09-16T09:06:32;4.72;;;2.45;;
10440;SDS011;5268;49.346;9.522;2022-09-16T09:11:53;5.57;;;3.10;;
10440;SDS011;5268;49.346;9.522;2022-09-16T09:17:06;5.68;;;3.05;;
10440;SDS011;5268;49.346;9.522;2022-09-16T09:22:33;9.38;;;3.70;;
10440;SDS011;5268;49.346;9.522;2022-09-16T09:27:50;4.45;;;3.20;;
10440;SDS011;5268;49.346;9.522;2022-09-16T09:33:10;6.97;;;3.38;;
10440;SDS011;5268;49.346;9.522;2022-09-16T09:38:28;5.55;;;3.20;;
10440;SDS011;5268;49.346;9.522;2022-09-16T09:43:41;6.38;;;3.58;;
10440;SDS011;5268;49.346;9.522;2022-09-16T09:48:48;4.88;;;3.75;;
10440;SDS011;5268;49.346;9.522;2022-09-16T09:53:56;5.72;;;3.47;;
10440;SDS011;5268;49.346;9.522;2022-09-16T09:59:09;6.75;;;3.42;;
10440;SDS011;5268;49.346;9.522;2022-09-16T10:04:20;5.47;;;3.83;;
10440;SDS011;5268;49.346;9.522;2022-09-16T10:09:24;8.10;;;5.68;;
10440;SDS011;5268;49.346;9.522;2022-09-16T10:14:30;9.23;;;6.18;;
10440;SDS011;5268;49.346;9.522;2022-09-16T10:19:36;5.88;;;4.43;;
10440;SDS011;5268;49.346;9.522;2022-09-16T10:24:53;7.53;;;4.75;;
10440;SDS011;5268;49.346;9.522;2022-09-16T10:30:14;6.57;;;4.38;;
10440;SDS011;5268;49.346;9.522;2022-09-16T10:35:19;5.90;;;4.35;;
10440;SDS011;5268;49.346;9.522;2022-09-16T10:40:49;7.85;;;5.35;;
10440;SDS011;5268;49.346;9.522;2022-09-16T10:46:03;7.00;;;4.80;;
10440;SDS011;5268;49.346;9.522;2022-09-16T10:51:21;6.63;;;4.88;;
10440;SDS011;5268;49.346;9.522;2022-09-16T11:01:51;7.13;;;4.05;;
10440;SDS011;5268;49.346;9.522;2022-09-16T11:07:04;7.97;;;6.20;;
10440;SDS011;5268;49.346;9.522;2022-09-16T11:18:19;5.72;;;3.60;;
10440;SDS011;5268;49.346;9.522;2022-09-16T11:23:36;5.53;;;3.50;;
10440;SDS011;5268;49.346;9.522;2022-09-16T11:29:19;5.65;;;3.65;;
10440;SDS011;5268;49.346;9.522;2022-09-16T11:40:39;6.75;;;3.28;;
10440;SDS011;5268;49.346;9.522;2022-09-16T11:45:57;5.72;;;2.70;;
10440;SDS011;5268;49.346;9.522;2022-09-16T11:51:21;5.32;;;2.78;;
10440;SDS011;5268;49.346;9.522;2022-09-16T11:57:01;4.88;;;3.00;;
10440;SDS011;5268;49.346;9.522;2022-09-16T12:02:16;4.38;;;2.85;;
10440;SDS011;5268;49.346;9.522;2022-09-16T12:07:30;4.97;;;2.80;;
10440;SDS011;5268;49.346;9.522;2022-09-16T12:13:20;9.38;;;3.08;;
10440;SDS011;5268;49.346;9.522;2022-09-16T12:18:35;4.47;;;2.45;;
10440;SDS011;5268;49.346;9.522;2022-09-16T12:23:44;6.15;;;2.70;;
10440;SDS011;5268;49.346;9.522;2022-09-16T12:28:53;4.00;;;2.63;;
10440;SDS011;5268;49.346;9.522;2022-09-16T12:34:00;5.90;;;2.75;;
10440;SDS011;5268;49.346;9.522;2022-09-16T12:39:05;6.40;;;2.22;;
10440;SDS011;5268;49.346;9.522;2022-09-16T12:49:53;5.47;;;1.90;;
10440;SDS011;5268;49.346;9.522;2022-09-16T12:55:12;3.00;;;1.60;;
10440;SDS011;5268;49.346;9.522;2022-09-16T13:00:38;6.93;;;1.60;;
10440;SDS011;5268;49.346;9.522;2022-09-16T13:05:44;3.30;;;1.35;;
10440;SDS011;5268;49.346;9.522;2022-09-16T13:10:58;2.00;;;1.40;;
10440;SDS011;5268;49.346;9.522;2022-09-16T13:16:04;2.80;;;1.60;;
10440;SDS011;5268;49.346;9.522;2022-09-16T13:21:13;5.22;;;1.70;;
10440;SDS011;5268;49.346;9.522;2022-09-16T13:26:22;3.95;;;1.73;;
10440;SDS011;5268;49.346;9.522;2022-09-16T13:31:29;3.53;;;1.58;;
10440;SDS011;5268;49.346;9.522;2022-09-16T13:36:31;2.60;;;1.60;;
10440;SDS011;5268;49.346;9.522;2022-09-16T13:41:35;4.07;;;1.55;;
10440;SDS011;5268;49.346;9.522;2022-09-16T13:46:40;3.35;;;1.40;;
10440;SDS011;5268;49.346;9.522;2022-09-16T13:51:42;2.45;;;1.20;;
10440;SDS011;5268;49.346;9.522;2022-09-16T13:56:49;1.55;;;1.02;;
10440;SDS011;5268;49.346;9.522;2022-09-16T14:02:13;1.83;;;0.90;;
10440;SDS011;5268;49.346;9.522;2022-09-16T14:07:22;2.22;;;1.10;;
10440;SDS011;5268;49.346;9.522;2022-09-16T14:12:36;2.85;;;1.02;;
10440;SDS011;5268;49.346;9.522;2022-09-16T14:17:49;1.40;;;0.70;;
10440;SDS011;5268;49.346;9.522;2022-09-16T14:22:59;1.77;;;0.90;;
10440;SDS011;5268;49.346;9.522;2022-09-16T14:28:07;2.40;;;0.90;;
10440;SDS011;5268;49.346;9.522;2022-09-16T14:33:21;2.25;;;1.00;;
10440;SDS011;5268;49.346;9.522;2022-09-16T14:38:30;2.45;;;1.10;;
10440;SDS011;5268;49.346;9.522;2022-09-16T14:43:37;3.22;;;1.98;;
10440;SDS011;5268;49.346;9.522;2022-09-16T14:48:49;2.78;;;1.30;;
10440;SDS011;5268;49.346;9.522;2022-09-16T14:53:57;2.95;;;1.30;;
10440;SDS011;5268;49.346;9.522;2022-09-16T14:59:35;2.80;;;1.20;;
10440;SDS011;5268;49.346;9.522;2022-09-16T15:04:43;2.40;;;1.20;;
10440;SDS011;5268;49.346;9.522;2022-09-16T15:09:50;2.15;;;1.10;;
10440;SDS011;5268;49.346;9.522;2022-09-16T15:15:02;2.22;;;1.02;;
10440;SDS011;5268;49.346;9.522;2022-09-16T15:20:18;2.97;;;1.30;;
10440;SDS011;5268;49.346;9.522;2022-09-16T15:25:24;2.35;;;1.27;;
10440;SDS011;5268;49.346;9.522;2022-09-16T15:30:29;1.17;;;0.80;;
10440;SDS011;5268;49.346;9.522;2022-09-16T15:35:34;2.38;;;1.10;;
10440;SDS011;5268;49.346;9.522;2022-09-16T15:40:37;6.07;;;1.20;;
10440;SDS011;5268;49.346;9.522;2022-09-16T15:45:40;3.55;;;0.90;;
10440;SDS011;5268;49.346;9.522;2022-09-16T15:50:46;1.15;;;0.45;;
10440;SDS011;5268;49.346;9.522;2022-09-16T15:55:53;1.10;;;0.60;;
10440;SDS011;5268;49.346;9.522;2022-09-16T16:00:59;1.02;;;0.70;;
10440;SDS011;5268;49.346;9.522;2022-09-16T16:06:05;1.10;;;0.70;;
10440;SDS011;5268;49.346;9.522;2022-09-16T16:11:07;1.25;;;0.60;;
10440;SDS011;5268;49.346;9.522;2022-09-16T16:16:11;0.82;;;0.80;;
10440;SDS011;5268;49.346;9.522;2022-09-16T16:21:16;1.60;;;0.80;;
10440;SDS011;5268;49.346;9.522;2022-09-16T16:26:20;1.95;;;0.63;;
10440;SDS011;5268;49.346;9.522;2022-09-16T16:31:22;1.38;;;0.70;;
10440;SDS011;5268;49.346;9.522;2022-09-16T16:36:25;2.15;;;0.80;;
10440;SDS011;5268;49.346;9.522;2022-09-16T16:41:27;1.40;;;0.80;;
10440;SDS011;5268;49.346;9.522;2022-09-16T16:46:29;1.30;;;0.80;;
10440;SDS011;5268;49.346;9.522;2022-09-16T16:51:33;1.52;;;0.90;;
10440;SDS011;5268;49.346;9.522;2022-09-16T16:56:35;2.08;;;0.93;;
10440;SDS011;5268;49.346;9.522;2022-09-16T17:01:39;1.90;;;0.80;;
10440;SDS011;5268;49.346;9.522;2022-09-16T17:06:43;0.95;;;0.80;;
10440;SDS011;5268;49.346;9.522;2022-09-16T17:11:49;1.48;;;0.90;;
10440;SDS011;5268;49.346;9.522;2022-09-16T17:16:52;1.83;;;1.05;;
10440;SDS011;5268;49.346;9.522;2022-09-16T17:21:56;2.58;;;1.10;;
10440;SDS011;5268;49.346;9.522;2022-09-16T17:26:58;2.47;;;1.00;;
10440;SDS011;5268;49.346;9.522;2022-09-16T17:32:01;1.90;;;0.98;;
10440;SDS011;5268;49.346;9.522;2022-09-16T17:37:04;1.67;;;1.00;;
10440;SDS011;5268;49.346;9.522;2022-09-16T17:42:09;2.10;;;1.23;;
10440;SDS011;5268;49.346;9.522;2022-09-16T17:47:11;1.10;;;1.00;;
10440;SDS011;5268;49.346;9.522;2022-09-16T17:52:15;1.67;;;1.00;;
10440;SDS011;5268;49.346;9.522;2022-09-16T17:57:17;1.20;;;1.00;;
10440;SDS011;5268;49.346;9.522;2022-09-16T18:02:19;1.30;;;1.00;;
10440;SDS011;5268;49.346;9.522;2022-09-16T18:07:24;1.33;;;1.08;;
10440;SDS011;5268;49.346;9.522;2022-09-16T18:12:26;1.30;;;1.20;;
10440;SDS011;5268;49.346;9.522;2022-09-16T18:17:28;2.28;;;1.10;;
10440;SDS011;5268;49.346;9.522;2022-09-16T18:22:41;0.82;;;0.80;;
10440;SDS011;5268;49.346;9.522;2022-09-16T18:27:47;1.52;;;0.82;;
10440;SDS011;5268;49.346;9.522;2022-09-16T18:32:49;1.45;;;0.90;;
10440;SDS011;5268;49.346;9.522;2022-09-16T18:37:58;3.13;;;1.00;;
10440;SDS011;5268;49.346;9.522;2022-09-16T18:43:02;0.98;;;0.80;;
10440;SDS011;5268;49.346;9.522;2022-09-16T18:48:08;0.80;;;0.80;;
10440;SDS011;5268;49.346;9.522;2022-09-16T18:53:17;3.20;;;1.10;;
10440;SDS011;5268;49.346;9.522;2022-09-16T18:58:38;1.23;;;0.90;;
10440;SDS011;5268;49.346;9.522;2022-09-16T19:03:42;0.60;;;0.60;;
10440;SDS011;5268;49.346;9.522;2022-09-16T19:08:48;1.48;;;0.77;;
10440;SDS011;5268;49.346;9.522;2022-09-16T19:14:11;1.10;;;0.70;;
10440;SDS011;5268;49.346;9.522;2022-09-16T19:19:59;2.40;;;0.75;;
10440;SDS011;5268;49.346;9.522;2022-09-16T19:25:11;1.65;;;0.70;;
10440;SDS011;5268;49.346;9.522;2022-09-16T19:30:17;1.20;;;0.70;;
10440;SDS011;5268;49.346;9.522;2022-09-16T19:35:29;1.38;;;0.80;;
10440;SDS011;5268;49.346;9.522;2022-09-16T20:33:53;0.80;;;0.80;;
10440;SDS011;5268;49.346;9.522;2022-09-16T20:39:26;1.55;;;0.60;;
10440;SDS011;5268;49.346;9.522;2022-09-16T20:45:06;1.40;;;0.70;;
10440;SDS011;5268;49.346;9.522;2022-09-16T20:50:54;0.63;;;0.50;;
10440;SDS011;5268;49.346;9.522;2022-09-16T20:56:26;2.38;;;0.70;;
